createdAt,value
2018-01-04T00:01:33.270Z,7.65
2018-01-04T00:04:01.400Z,8.30
2018-01-04T00:06:29.527Z,4.68
2018-01-04T00:08:57.692Z,7.40
2018-01-04T00:11:25.830Z,2.58
2018-01-04T00:13:59.730Z,5.70
2018-01-04T00:16:28.604Z,6.60
2018-01-04T00:18:56.902Z,3.10
2018-01-04T00:21:25.795Z,11.52
2018-01-04T00:23:54.703Z,4.25
2018-01-04T00:26:22.832Z,4.15
2018-01-04T00:28:56.684Z,7.28
2018-01-04T00:31:31.905Z,4.35
2018-01-04T00:34:00.823Z,3.87
2018-01-04T00:36:28.930Z,3.40
2018-01-04T00:38:57.069Z,2.70
2018-01-04T00:43:58.730Z,7.37
2018-01-04T00:46:27.374Z,9.55
2018-01-04T00:49:01.738Z,5.32
2018-01-04T00:51:29.844Z,5.20
2018-01-04T00:53:57.964Z,6.37
2018-01-04T00:56:26.093Z,7.62
2018-01-04T00:58:54.212Z,6.10
2018-01-04T01:01:22.346Z,3.70
2018-01-04T01:03:50.468Z,6.13
2018-01-04T01:06:18.585Z,5.62
2018-01-04T01:08:46.717Z,5.82
2018-01-04T01:11:14.873Z,6.35
2018-01-04T01:13:43.007Z,6.95
2018-01-04T01:16:11.143Z,3.35
2018-01-04T01:18:39.261Z,6.30
2018-01-04T01:21:07.368Z,7.93
2018-01-04T01:23:35.505Z,7.85
2018-01-04T01:26:04.406Z,5.72
2018-01-04T01:28:33.302Z,6.35
2018-01-04T01:31:02.211Z,3.33
2018-01-04T01:33:30.327Z,7.00
2018-01-04T01:35:58.470Z,2.90
2018-01-04T01:38:26.561Z,5.20
2018-01-04T01:40:54.697Z,7.12
2018-01-04T01:43:23.581Z,5.10
2018-01-04T01:45:51.691Z,4.40
2018-01-04T01:48:26.398Z,5.20
2018-01-04T01:50:54.525Z,5.62
2018-01-04T01:53:23.395Z,3.40
2018-01-04T01:55:51.539Z,5.25
2018-01-04T01:58:19.651Z,5.93
2018-01-04T02:00:47.829Z,8.40
2018-01-04T02:03:16.721Z,4.60
2018-01-04T02:05:50.466Z,5.62
2018-01-04T02:08:18.611Z,3.28
2018-01-04T02:10:47.485Z,3.50
2018-01-04T02:13:16.368Z,4.82
2018-01-04T02:15:44.488Z,4.20
2018-01-04T02:18:24.737Z,3.93
2018-01-04T02:21:05.053Z,8.00
2018-01-04T02:23:45.002Z,4.95
2018-01-04T02:26:25.098Z,3.37
2018-01-04T02:28:58.359Z,5.15
2018-01-04T02:31:39.259Z,7.82
2018-01-04T02:34:19.331Z,3.10
2018-01-04T02:36:59.441Z,1.50
2018-01-04T02:39:40.429Z,6.97
2018-01-04T02:45:19.006Z,5.35
2018-01-04T02:47:47.147Z,3.57
2018-01-04T02:50:15.266Z,4.97
2018-01-04T02:52:43.426Z,6.37
2018-01-04T02:55:11.537Z,5.65
2018-01-04T02:57:40.449Z,7.03
2018-01-04T03:00:08.623Z,3.20
2018-01-04T03:02:36.802Z,1.90
2018-01-04T03:05:04.907Z,6.97
2018-01-04T03:07:33.035Z,7.97
2018-01-04T03:10:01.143Z,5.43
2018-01-04T03:15:09.321Z,5.32
2018-01-04T03:17:38.246Z,10.30
2018-01-04T03:20:06.363Z,7.30
2018-01-04T03:22:41.039Z,5.12
2018-01-04T03:25:14.742Z,5.87
2018-01-04T03:27:48.591Z,6.45
2018-01-04T03:30:22.388Z,2.55
2018-01-04T03:32:56.149Z,4.80
2018-01-04T03:35:30.800Z,3.17
2018-01-04T03:38:04.521Z,3.50
2018-01-04T03:40:38.423Z,2.12
2018-01-04T03:43:12.216Z,2.78
2018-01-04T03:45:46.051Z,2.28
2018-01-04T03:48:19.946Z,5.43
2018-01-04T03:50:53.759Z,6.65
2018-01-04T03:53:27.686Z,3.90
2018-01-04T03:56:01.321Z,3.87
2018-01-04T03:58:35.189Z,2.67
2018-01-04T04:01:09.952Z,4.57
2018-01-04T04:03:38.899Z,5.43
2018-01-04T04:06:13.522Z,9.77
2018-01-04T04:08:44.362Z,3.25
2018-01-04T04:11:13.249Z,3.80
2018-01-04T04:13:41.350Z,4.47
2018-01-04T04:16:09.477Z,3.53
2018-01-04T04:18:37.595Z,3.43
2018-01-04T04:21:05.733Z,1.83
2018-01-04T04:23:34.624Z,4.45
2018-01-04T04:26:02.730Z,5.80
2018-01-04T04:28:30.859Z,2.78
2018-01-04T04:31:00.485Z,2.25
2018-01-04T04:33:29.404Z,1.63
2018-01-04T04:35:57.519Z,6.95
2018-01-04T04:38:25.662Z,3.00
2018-01-04T04:40:53.791Z,3.17
2018-01-04T04:43:22.682Z,5.05
2018-01-04T04:45:51.562Z,2.22
2018-01-04T04:48:20.458Z,2.10
2018-01-04T04:50:49.356Z,4.37
2018-01-04T04:53:18.232Z,4.62
2018-01-04T04:55:47.121Z,3.65
2018-01-04T04:58:15.272Z,3.10
2018-01-04T05:03:16.909Z,0.80
2018-01-04T05:05:44.996Z,3.65
2018-01-04T05:08:13.230Z,2.08
2018-01-04T05:10:42.115Z,1.30
2018-01-04T05:13:11.030Z,2.22
2018-01-04T05:15:39.980Z,1.48
2018-01-04T05:18:08.869Z,0.70
2018-01-04T05:20:37.768Z,1.02
2018-01-04T05:23:06.651Z,2.28
2018-01-04T05:25:34.756Z,2.45
2018-01-04T05:28:02.877Z,0.95
2018-01-04T05:30:31.006Z,4.28
2018-01-04T05:32:59.180Z,1.37
2018-01-04T05:35:28.034Z,4.65
2018-01-04T05:37:56.162Z,1.05
2018-01-04T05:40:26.707Z,2.00
2018-01-04T05:42:54.830Z,1.12
2018-01-04T05:45:22.947Z,1.02
2018-01-04T05:47:51.090Z,1.20
2018-01-04T05:50:19.207Z,1.30
2018-01-04T05:52:47.326Z,0.85
2018-01-04T05:55:15.459Z,2.05
2018-01-04T05:57:44.360Z,2.15
2018-01-04T06:00:13.246Z,2.45
2018-01-04T06:02:42.160Z,0.60
2018-01-04T06:05:10.331Z,0.50
2018-01-04T06:07:38.463Z,0.70
2018-01-04T06:10:06.575Z,2.67
2018-01-04T06:12:34.696Z,1.40
2018-01-04T06:15:02.829Z,0.98
2018-01-04T06:17:30.955Z,1.00
2018-01-04T06:19:59.065Z,2.15
2018-01-04T06:22:27.199Z,0.60
2018-01-04T06:24:55.321Z,0.80
2018-01-04T06:27:23.441Z,0.82
2018-01-04T06:29:53.063Z,0.90
2018-01-04T06:32:26.974Z,0.40
2018-01-04T06:34:55.894Z,1.08
2018-01-04T06:37:24.037Z,0.85
2018-01-04T06:39:57.786Z,1.05
2018-01-04T06:42:25.928Z,0.90
2018-01-04T06:44:54.051Z,0.47
2018-01-04T06:47:22.155Z,0.90
2018-01-04T06:49:51.081Z,0.80
2018-01-04T06:52:22.386Z,1.52
2018-01-04T06:54:51.395Z,1.05
2018-01-04T06:57:19.511Z,0.77
2018-01-04T06:59:47.784Z,0.60
2018-01-04T07:02:16.006Z,0.68
2018-01-04T07:04:44.987Z,1.37
2018-01-04T07:07:13.109Z,0.60
2018-01-04T07:09:41.248Z,0.77
2018-01-04T07:12:10.127Z,0.50
2018-01-04T07:14:39.025Z,1.15
2018-01-04T07:17:07.293Z,2.87
2018-01-04T07:19:36.177Z,0.75
2018-01-04T07:22:05.089Z,1.00
2018-01-04T07:24:33.215Z,1.23
2018-01-04T07:27:01.348Z,0.70
2018-01-04T07:29:29.481Z,0.98
2018-01-04T07:31:58.376Z,0.75
2018-01-04T07:34:26.644Z,0.50
2018-01-04T07:36:55.531Z,0.82
2018-01-04T07:39:23.685Z,0.73
2018-01-04T07:41:51.812Z,0.50
2018-01-04T07:44:19.945Z,0.60
2018-01-04T07:46:48.053Z,0.65
2018-01-04T07:49:16.181Z,1.37
2018-01-04T07:51:44.307Z,0.60
2018-01-04T07:54:12.495Z,1.70
2018-01-04T07:56:41.320Z,0.50
2018-01-04T07:59:09.443Z,0.70
2018-01-04T08:01:37.584Z,0.70
2018-01-04T08:04:06.471Z,1.17
2018-01-04T08:06:35.475Z,0.50
2018-01-04T08:09:03.600Z,0.82
2018-01-04T08:11:31.720Z,0.73
2018-01-04T08:13:59.820Z,2.75
2018-01-04T08:16:27.949Z,0.60
2018-01-04T08:18:56.842Z,1.50
2018-01-04T08:21:25.715Z,0.60
2018-01-04T08:23:53.837Z,1.55
2018-01-04T08:26:21.937Z,1.00
2018-01-04T08:28:50.069Z,0.60
2018-01-04T08:31:18.190Z,0.73
2018-01-04T08:33:46.403Z,0.55
2018-01-04T08:36:15.281Z,1.15
2018-01-04T08:38:44.157Z,0.68
2018-01-04T08:41:12.317Z,0.60
2018-01-04T08:43:40.447Z,0.75
2018-01-04T08:46:08.775Z,2.15
2018-01-04T08:48:36.881Z,0.60
2018-01-04T08:51:05.013Z,2.35
2018-01-04T08:53:33.138Z,1.23
2018-01-04T08:56:01.258Z,0.65
2018-01-04T08:58:29.394Z,1.35
2018-01-04T09:00:57.502Z,0.80
2018-01-04T09:03:25.650Z,0.50
2018-01-04T09:05:53.756Z,1.25
2018-01-04T09:08:22.639Z,0.60
2018-01-04T09:10:50.770Z,0.60
2018-01-04T09:13:18.889Z,0.60
2018-01-04T09:15:46.997Z,0.60
2018-01-04T09:18:15.111Z,0.60
2018-01-04T09:20:43.258Z,2.87
2018-01-04T09:23:11.381Z,1.05
2018-01-04T09:25:40.257Z,1.25
2018-01-04T09:28:08.530Z,1.85
2018-01-04T09:30:36.617Z,0.50
2018-01-04T09:33:05.514Z,0.57
2018-01-04T09:35:34.397Z,0.70
2018-01-04T09:38:03.277Z,0.93
2018-01-04T09:40:31.400Z,2.20
2018-01-04T09:42:59.510Z,0.65
2018-01-04T09:45:28.648Z,1.02
2018-01-04T09:48:00.128Z,0.80
2018-01-04T09:50:28.678Z,0.70
2018-01-04T09:52:56.792Z,1.20
2018-01-04T09:55:24.903Z,2.00
2018-01-04T09:57:53.778Z,0.50
2018-01-04T10:00:23.498Z,0.70
2018-01-04T10:02:52.387Z,1.13
2018-01-04T10:05:21.267Z,1.00
2018-01-04T10:07:49.388Z,0.70
2018-01-04T10:10:17.501Z,1.98
2018-01-04T10:12:45.617Z,1.25
2018-01-04T10:15:13.760Z,0.98
2018-01-04T10:17:42.643Z,0.70
2018-01-04T10:20:10.772Z,1.02
2018-01-04T10:22:38.937Z,2.33
2018-01-04T10:25:07.043Z,1.23
2018-01-04T10:27:35.166Z,1.85
2018-01-04T10:30:03.301Z,1.52
2018-01-04T10:32:31.420Z,1.00
2018-01-04T10:34:59.533Z,0.70
2018-01-04T10:37:27.656Z,1.45
2018-01-04T10:39:55.766Z,1.50
2018-01-04T10:42:23.963Z,1.00
2018-01-04T10:44:52.065Z,1.60
2018-01-04T10:47:20.197Z,0.95
2018-01-04T10:49:48.310Z,1.10
2018-01-04T10:52:16.439Z,0.50
2018-01-04T10:54:44.633Z,2.15
2018-01-04T10:57:13.502Z,0.60
2018-01-04T10:59:41.629Z,0.70
2018-01-04T11:02:09.839Z,0.85
2018-01-04T11:04:38.008Z,0.88
2018-01-04T11:07:06.105Z,0.70
2018-01-04T11:09:34.237Z,1.83
2018-01-04T11:12:02.374Z,0.60
2018-01-04T11:14:30.491Z,1.23
2018-01-04T11:16:58.617Z,2.87
2018-01-04T11:19:27.493Z,1.60
2018-01-04T11:21:56.392Z,0.70
2018-01-04T11:24:25.282Z,1.02
2018-01-04T11:26:54.160Z,0.98
2018-01-04T11:29:23.043Z,1.70
2018-01-04T11:31:51.176Z,1.30
2018-01-04T11:34:19.293Z,1.00
2018-01-04T11:36:48.169Z,0.62
2018-01-04T11:39:16.292Z,1.58
2018-01-04T11:41:44.417Z,0.80
2018-01-04T11:44:12.576Z,0.82
2018-01-04T11:46:40.646Z,1.40
2018-01-04T11:49:08.765Z,0.73
2018-01-04T11:51:36.889Z,1.42
2018-01-04T11:54:05.047Z,1.27
2018-01-04T11:56:33.182Z,0.90
2018-01-04T11:59:01.305Z,1.12
2018-01-04T12:01:29.447Z,1.45
2018-01-04T12:03:57.618Z,1.00
2018-01-04T12:06:25.783Z,1.92
2018-01-04T12:08:53.880Z,1.90
2018-01-04T12:11:22.005Z,1.15
2018-01-04T12:13:50.887Z,5.18
2018-01-04T12:16:19.779Z,1.05
2018-01-04T12:18:48.664Z,1.37
2018-01-04T12:21:17.550Z,1.30
2018-01-04T12:23:46.454Z,1.80
2018-01-04T12:26:15.330Z,2.85
2018-01-04T12:28:44.232Z,1.58
2018-01-04T12:31:13.121Z,1.85
2018-01-04T12:33:42.011Z,1.80
2018-01-04T12:36:10.892Z,3.78
2018-01-04T12:38:39.794Z,1.90
2018-01-04T12:41:07.908Z,1.35
2018-01-04T12:43:36.028Z,1.37
2018-01-04T12:46:04.915Z,5.50
2018-01-04T12:48:33.814Z,7.93
2018-01-04T12:51:02.713Z,11.70
2018-01-04T12:53:30.836Z,6.93
2018-01-04T12:55:58.940Z,5.57
2018-01-04T12:58:27.841Z,2.80
2018-01-04T13:00:56.725Z,2.00
2018-01-04T13:03:25.653Z,1.60
2018-01-04T13:05:53.759Z,2.15
2018-01-04T13:08:21.890Z,2.20
2018-01-04T13:10:49.991Z,2.80
2018-01-04T13:13:18.103Z,2.00
2018-01-04T13:15:46.994Z,2.25
2018-01-04T13:18:15.872Z,2.23
2018-01-04T13:20:44.775Z,2.33
2018-01-04T13:23:13.646Z,3.05
2018-01-04T13:25:41.772Z,2.33
2018-01-04T13:28:10.153Z,1.27
2018-01-04T13:30:38.281Z,1.58
2018-01-04T13:33:07.167Z,1.00
2018-01-04T13:35:36.044Z,2.60
2018-01-04T13:38:04.177Z,2.30
2018-01-04T13:40:32.348Z,1.62
2018-01-04T13:43:00.496Z,3.37
2018-01-04T13:45:29.363Z,1.50
2018-01-04T13:47:58.247Z,1.43
2018-01-04T13:50:27.124Z,3.75
2018-01-04T13:52:55.305Z,1.33
2018-01-04T13:55:23.490Z,2.10
2018-01-04T13:57:52.405Z,1.40
2018-01-04T14:00:21.306Z,1.12
2018-01-04T14:02:49.423Z,1.37
2018-01-04T14:05:18.335Z,1.80
2018-01-04T14:07:47.214Z,1.58
2018-01-04T14:10:16.133Z,1.33
2018-01-04T14:12:45.006Z,2.20
2018-01-04T14:15:13.914Z,1.50
2018-01-04T14:17:42.043Z,1.70
2018-01-04T14:20:10.462Z,1.20
2018-01-04T14:22:39.336Z,1.30
2018-01-04T14:25:08.207Z,2.50
2018-01-04T14:27:36.326Z,1.05
2018-01-04T14:30:04.456Z,1.73
2018-01-04T14:32:32.579Z,4.12
2018-01-04T14:35:00.677Z,1.92
2018-01-04T14:37:28.811Z,1.40
2018-01-04T14:39:56.910Z,2.53
2018-01-04T14:42:25.062Z,5.80
2018-01-04T14:44:53.198Z,2.62
2018-01-04T14:47:22.084Z,7.10
2018-01-04T14:49:50.973Z,9.75
2018-01-04T14:52:19.853Z,2.97
2018-01-04T14:54:48.777Z,2.45
2018-01-04T14:57:16.910Z,3.78
2018-01-04T14:59:45.061Z,2.70
2018-01-04T15:02:13.283Z,2.90
2018-01-04T15:04:41.441Z,4.62
2018-01-04T15:07:10.341Z,4.22
2018-01-04T15:09:39.230Z,4.15
2018-01-04T15:12:08.150Z,1.87
2018-01-04T15:14:37.012Z,2.70
2018-01-04T15:17:05.890Z,2.92
2018-01-04T15:19:34.780Z,3.85
2018-01-04T15:22:02.901Z,2.35
2018-01-04T15:24:31.039Z,2.90
2018-01-04T15:26:59.139Z,4.20
2018-01-04T15:29:27.260Z,3.35
2018-01-04T15:31:56.240Z,5.07
2018-01-04T15:34:24.372Z,3.10
2018-01-04T15:36:52.494Z,3.37
2018-01-04T15:39:20.621Z,4.87
2018-01-04T15:41:48.770Z,3.20
2018-01-04T15:44:16.890Z,3.65
2018-01-04T15:46:45.016Z,5.68
2018-01-04T15:49:13.135Z,5.33
2018-01-04T15:51:41.278Z,5.32
2018-01-04T15:54:09.408Z,2.17
2018-01-04T15:56:38.314Z,3.00
2018-01-04T15:59:07.172Z,2.90
2018-01-04T16:01:36.903Z,1.93
2018-01-04T16:04:05.786Z,1.48
2018-01-04T16:06:34.691Z,1.70
2018-01-04T16:09:03.558Z,1.20
2018-01-04T16:11:31.739Z,1.73
2018-01-04T16:13:59.845Z,5.25
2018-01-04T16:16:27.971Z,2.03
2018-01-04T16:18:56.083Z,1.70
2018-01-04T16:21:24.196Z,2.55
2018-01-04T16:23:52.338Z,1.05
2018-01-04T16:26:20.513Z,1.33
2018-01-04T16:28:48.661Z,1.17
2018-01-04T16:31:17.577Z,1.35
2018-01-04T16:33:45.694Z,0.83
2018-01-04T16:36:13.897Z,1.85
2018-01-04T16:38:42.003Z,1.45
2018-01-04T16:41:10.242Z,1.10
2018-01-04T16:43:38.352Z,1.10
2018-01-04T16:46:06.505Z,0.90
2018-01-04T16:48:34.649Z,1.47
2018-01-04T16:51:02.776Z,1.45
2018-01-04T16:53:30.882Z,1.90
2018-01-04T16:55:59.765Z,1.77
2018-01-04T16:58:28.652Z,1.27
2018-01-04T17:00:56.791Z,3.40
2018-01-04T17:03:24.926Z,1.75
2018-01-04T17:05:53.815Z,0.80
2018-01-04T17:08:22.092Z,1.20
2018-01-04T17:10:50.987Z,3.00
2018-01-04T17:13:19.856Z,3.62
2018-01-04T17:15:48.774Z,2.65
2018-01-04T17:18:17.635Z,2.45
2018-01-04T17:20:46.567Z,5.75
2018-01-04T17:23:14.690Z,5.47
2018-01-04T17:25:42.820Z,2.00
2018-01-04T17:28:10.959Z,6.45
2018-01-04T17:30:39.137Z,3.47
2018-01-04T17:33:07.310Z,5.50
2018-01-04T17:35:35.382Z,5.57
2018-01-04T17:38:03.533Z,2.35
2018-01-04T17:40:32.423Z,1.00
2018-01-04T17:43:01.309Z,1.10
2018-01-04T17:45:29.430Z,1.10
2018-01-04T17:47:57.540Z,1.63
2018-01-04T17:50:25.706Z,2.92
2018-01-04T17:52:54.701Z,1.73
2018-01-04T17:55:22.930Z,2.05
2018-01-04T17:57:52.611Z,3.60
2018-01-04T18:00:21.524Z,6.03
2018-01-04T18:02:49.646Z,6.33
2018-01-04T18:05:17.746Z,3.37
2018-01-04T18:07:45.935Z,2.70
2018-01-04T18:10:14.048Z,5.78
2018-01-04T18:12:42.286Z,5.10
2018-01-04T18:15:11.440Z,8.07
2018-01-04T18:17:40.360Z,5.50
2018-01-04T18:20:08.655Z,5.82
2018-01-04T18:22:36.824Z,2.50
2018-01-04T18:25:04.986Z,4.22
2018-01-04T18:27:33.149Z,2.25
2018-01-04T18:30:02.160Z,1.25
2018-01-04T18:32:30.322Z,1.40
2018-01-04T18:34:59.452Z,2.95
2018-01-04T18:37:27.752Z,2.53
2018-01-04T18:39:55.868Z,2.87
2018-01-04T18:42:24.531Z,2.95
2018-01-04T18:44:52.678Z,2.75
2018-01-04T18:47:20.850Z,1.40
2018-01-04T18:49:49.016Z,1.70
2018-01-04T18:52:17.192Z,3.72
2018-01-04T18:54:45.766Z,2.20
2018-01-04T18:57:13.907Z,1.67
2018-01-04T18:59:42.093Z,1.20
2018-01-04T19:02:10.224Z,1.30
2018-01-04T19:04:38.373Z,1.17
2018-01-04T19:07:06.698Z,1.55
2018-01-04T19:09:35.588Z,1.92
2018-01-04T19:12:04.068Z,0.75
2018-01-04T19:14:32.220Z,1.75
2018-01-04T19:17:00.378Z,1.30
2018-01-04T19:19:29.300Z,1.87
2018-01-04T19:21:58.195Z,2.42
2018-01-04T19:24:26.431Z,2.50
2018-01-04T19:26:56.086Z,1.60
2018-01-04T19:29:24.227Z,1.50
2018-01-04T19:31:52.379Z,1.30
2018-01-04T19:34:20.528Z,1.00
2018-01-04T19:36:48.663Z,1.90
2018-01-04T19:39:16.806Z,1.85
2018-01-04T19:41:46.243Z,2.28
2018-01-04T19:44:14.418Z,1.85
2018-01-04T19:46:42.548Z,3.28
2018-01-04T19:49:10.820Z,2.50
2018-01-04T19:51:39.803Z,2.35
2018-01-04T19:54:07.940Z,1.50
2018-01-04T19:56:36.333Z,1.08
2018-01-04T19:59:04.512Z,1.20
2018-01-04T20:01:32.664Z,1.40
2018-01-04T20:04:00.798Z,1.90
2018-01-04T20:06:29.730Z,0.50
2018-01-04T20:08:58.253Z,0.60
2018-01-04T20:11:26.378Z,1.75
2018-01-04T20:13:54.529Z,1.30
2018-01-04T20:16:22.683Z,1.60
2018-01-04T20:18:51.708Z,1.60
2018-01-04T20:21:19.837Z,1.75
2018-01-04T20:23:48.804Z,1.10
2018-01-04T20:26:16.926Z,1.17
2018-01-04T20:28:45.214Z,1.73
2018-01-04T20:31:13.391Z,1.40
2018-01-04T20:33:41.569Z,2.10
2018-01-04T20:36:09.718Z,1.80
2018-01-04T20:38:37.888Z,1.90
2018-01-04T20:41:06.986Z,1.77
2018-01-04T20:43:36.005Z,2.40
2018-01-04T20:46:04.161Z,1.85
2018-01-04T20:48:32.368Z,5.82
2018-01-04T20:51:00.539Z,2.22
2018-01-04T20:53:28.656Z,2.10
2018-01-04T20:55:56.877Z,2.37
2018-01-04T20:58:25.061Z,1.35
2018-01-04T21:00:53.226Z,1.10
2018-01-04T21:03:21.453Z,1.20
2018-01-04T21:05:50.424Z,0.75
2018-01-04T21:08:18.580Z,0.70
2018-01-04T21:10:46.782Z,0.75
2018-01-04T21:13:15.808Z,1.42
2018-01-04T21:15:43.966Z,0.73
2018-01-04T21:18:12.175Z,0.90
2018-01-04T21:20:40.320Z,1.33
2018-01-04T21:23:09.258Z,0.70
2018-01-04T21:25:37.400Z,0.93
2018-01-04T21:28:05.541Z,0.75
2018-01-04T21:30:33.725Z,1.50
2018-01-04T21:33:01.898Z,0.50
2018-01-04T21:35:30.046Z,0.60
2018-01-04T21:37:58.170Z,0.80
2018-01-04T21:40:26.365Z,0.60
2018-01-04T21:42:54.500Z,0.60
2018-01-04T21:45:22.642Z,1.15
2018-01-04T21:47:51.527Z,0.63
2018-01-04T21:50:20.495Z,1.77
2018-01-04T21:52:48.635Z,0.90
2018-01-04T21:55:16.841Z,1.45
2018-01-04T21:57:44.963Z,0.93
2018-01-04T22:00:13.883Z,0.80
2018-01-04T22:02:42.010Z,0.83
2018-01-04T22:05:10.161Z,1.05
2018-01-04T22:07:39.063Z,0.60
2018-01-04T22:10:07.975Z,1.05
2018-01-04T22:12:36.179Z,1.45
2018-01-04T22:15:04.321Z,0.90
2018-01-04T22:17:32.456Z,0.60
2018-01-04T22:20:00.612Z,1.48
2018-01-04T22:22:28.742Z,1.40
2018-01-04T22:24:56.881Z,0.60
2018-01-04T22:27:25.767Z,0.93
2018-01-04T22:29:53.949Z,1.15
2018-01-04T22:32:22.051Z,0.80
2018-01-04T22:34:50.183Z,0.60
2018-01-04T22:37:19.106Z,1.00
2018-01-04T22:39:47.241Z,0.68
2018-01-04T22:42:15.372Z,1.58
2018-01-04T22:44:43.539Z,0.68
2018-01-04T22:47:11.777Z,0.50
2018-01-04T22:49:40.800Z,0.60
2018-01-04T22:52:09.068Z,0.60
2018-01-04T22:54:37.194Z,0.60
2018-01-04T22:57:05.316Z,0.88
2018-01-04T22:59:33.457Z,1.05
2018-01-04T23:02:02.352Z,0.50
2018-01-04T23:04:31.276Z,0.50
2018-01-04T23:06:59.445Z,0.70
2018-01-04T23:09:27.570Z,0.50
2018-01-04T23:11:56.460Z,0.50
2018-01-04T23:14:25.380Z,0.47
2018-01-04T23:16:53.641Z,0.50
2018-01-04T23:19:21.751Z,0.87
2018-01-04T23:21:49.899Z,0.80
2018-01-04T23:24:18.923Z,0.50
2018-01-04T23:26:47.158Z,0.40
2018-01-04T23:29:15.325Z,0.50
2018-01-04T23:31:44.351Z,0.73
2018-01-04T23:34:13.213Z,2.75
2018-01-04T23:36:41.350Z,1.23
2018-01-04T23:39:09.499Z,1.10
2018-01-04T23:41:37.602Z,0.88
2018-01-04T23:44:05.726Z,0.80
2018-01-04T23:46:33.839Z,2.03
2018-01-04T23:49:01.998Z,0.80
2018-01-04T23:51:30.120Z,1.95
2018-01-04T23:53:58.995Z,0.60
2018-01-04T23:56:27.890Z,0.75
2018-01-04T23:58:56.792Z,0.60
